sensor_id;sensor_type;location;lat;lon;timestamp;P1;durP1;ratioP1;P2;durP2;ratioP2
31537;SDS011;18147;51.952;6.146;2023-02-15T00:01:32;75.72;;;29.23;;
31537;SDS011;18147;51.952;6.146;2023-02-15T00:03:58;79.82;;;31.38;;
31537;SDS011;18147;51.952;6.146;2023-02-15T00:06:24;99.70;;;33.05;;
31537;SDS011;18147;51.952;6.146;2023-02-15T00:08:50;74.60;;;30.52;;
31537;SDS011;18147;51.952;6.146;2023-02-15T00:11:16;87.28;;;32.00;;
31537;SDS011;18147;51.952;6.146;2023-02-15T00:14:08;66.47;;;29.02;;
31537;SDS011;18147;51.952;6.146;2023-02-15T00:16:41;70.38;;;28.08;;
31537;SDS011;18147;51.952;6.146;2023-02-15T00:19:07;310.92;;;52.20;;
31537;SDS011;18147;51.952;6.146;2023-02-15T00:21:35;132.18;;;39.53;;
31537;SDS011;18147;51.952;6.146;2023-02-15T00:24:03;113.43;;;39.95;;
31537;SDS011;18147;51.952;6.146;2023-02-15T00:26:30;118.10;;;40.85;;
31537;SDS011;18147;51.952;6.146;2023-02-15T00:28:56;109.93;;;36.95;;
31537;SDS011;18147;51.952;6.146;2023-02-15T00:31:25;90.32;;;34.80;;
31537;SDS011;18147;51.952;6.146;2023-02-15T00:33:54;86.97;;;33.28;;
31537;SDS011;18147;51.952;6.146;2023-02-15T00:36:20;93.47;;;33.35;;
31537;SDS011;18147;51.952;6.146;2023-02-15T00:38:47;86.18;;;33.40;;
31537;SDS011;18147;51.952;6.146;2023-02-15T00:41:12;81.57;;;31.48;;
31537;SDS011;18147;51.952;6.146;2023-02-15T00:43:38;88.43;;;35.70;;
31537;SDS011;18147;51.952;6.146;2023-02-15T00:46:04;92.10;;;33.47;;
31537;SDS011;18147;51.952;6.146;2023-02-15T00:48:31;89.03;;;33.95;;
31537;SDS011;18147;51.952;6.146;2023-02-15T00:50:57;64.60;;;26.15;;
31537;SDS011;18147;51.952;6.146;2023-02-15T00:53:24;82.53;;;31.60;;
31537;SDS011;18147;51.952;6.146;2023-02-15T00:55:51;65.30;;;28.92;;
31537;SDS011;18147;51.952;6.146;2023-02-15T00:58:16;76.93;;;29.45;;
31537;SDS011;18147;51.952;6.146;2023-02-15T01:00:42;82.10;;;31.85;;
31537;SDS011;18147;51.952;6.146;2023-02-15T01:03:09;61.65;;;27.02;;
31537;SDS011;18147;51.952;6.146;2023-02-15T01:05:35;69.50;;;29.15;;
31537;SDS011;18147;51.952;6.146;2023-02-15T01:08:02;90.18;;;31.63;;
31537;SDS011;18147;51.952;6.146;2023-02-15T01:10:28;91.35;;;33.55;;
31537;SDS011;18147;51.952;6.146;2023-02-15T01:12:54;113.05;;;35.50;;
31537;SDS011;18147;51.952;6.146;2023-02-15T01:15:21;79.45;;;31.05;;
31537;SDS011;18147;51.952;6.146;2023-02-15T01:17:46;168.15;;;32.88;;
31537;SDS011;18147;51.952;6.146;2023-02-15T01:20:18;81.72;;;29.20;;
31537;SDS011;18147;51.952;6.146;2023-02-15T01:22:48;63.85;;;28.70;;
31537;SDS011;18147;51.952;6.146;2023-02-15T01:25:15;61.83;;;29.55;;
31537;SDS011;18147;51.952;6.146;2023-02-15T01:27:41;53.58;;;24.95;;
31537;SDS011;18147;51.952;6.146;2023-02-15T01:30:08;57.38;;;24.63;;
31537;SDS011;18147;51.952;6.146;2023-02-15T01:32:34;77.20;;;30.52;;
31537;SDS011;18147;51.952;6.146;2023-02-15T01:34:59;81.15;;;32.78;;
31537;SDS011;18147;51.952;6.146;2023-02-15T01:37:25;82.55;;;33.60;;
31537;SDS011;18147;51.952;6.146;2023-02-15T01:39:51;78.57;;;31.27;;
31537;SDS011;18147;51.952;6.146;2023-02-15T01:42:24;144.25;;;30.90;;
31537;SDS011;18147;51.952;6.146;2023-02-15T01:44:54;165.57;;;34.05;;
31537;SDS011;18147;51.952;6.146;2023-02-15T01:50:06;50.65;;;24.02;;
31537;SDS011;18147;51.952;6.146;2023-02-15T01:52:38;46.92;;;23.92;;
31537;SDS011;18147;51.952;6.146;2023-02-15T01:55:10;56.58;;;25.52;;
31537;SDS011;18147;51.952;6.146;2023-02-15T01:57:35;50.58;;;25.63;;
31537;SDS011;18147;51.952;6.146;2023-02-15T02:00:03;45.10;;;23.55;;
31537;SDS011;18147;51.952;6.146;2023-02-15T02:02:37;49.75;;;24.83;;
31537;SDS011;18147;51.952;6.146;2023-02-15T02:05:04;78.63;;;25.67;;
31537;SDS011;18147;51.952;6.146;2023-02-15T02:07:33;43.05;;;23.25;;
31537;SDS011;18147;51.952;6.146;2023-02-15T02:10:03;49.97;;;23.93;;
31537;SDS011;18147;51.952;6.146;2023-02-15T02:12:32;55.13;;;25.58;;
31537;SDS011;18147;51.952;6.146;2023-02-15T02:14:59;59.78;;;25.27;;
31537;SDS011;18147;51.952;6.146;2023-02-15T02:20:17;54.80;;;23.50;;
31537;SDS011;18147;51.952;6.146;2023-02-15T02:39:51;59.70;;;25.77;;
31537;SDS011;18147;51.952;6.146;2023-02-15T02:42:26;55.72;;;25.33;;
31537;SDS011;18147;51.952;6.146;2023-02-15T02:45:02;56.40;;;25.17;;
31537;SDS011;18147;51.952;6.146;2023-02-15T02:47:37;51.90;;;24.33;;
31537;SDS011;18147;51.952;6.146;2023-02-15T02:50:09;59.78;;;24.52;;
31537;SDS011;18147;51.952;6.146;2023-02-15T02:52:43;52.45;;;24.60;;
31537;SDS011;18147;51.952;6.146;2023-02-15T02:58:32;52.78;;;23.60;;
31537;SDS011;18147;51.952;6.146;2023-02-15T03:03:20;53.65;;;24.00;;
31537;SDS011;18147;51.952;6.146;2023-02-15T03:05:49;55.20;;;24.20;;
31537;SDS011;18147;51.952;6.146;2023-02-15T03:08:18;57.97;;;24.95;;
31537;SDS011;18147;51.952;6.146;2023-02-15T03:10:48;54.17;;;24.90;;
31537;SDS011;18147;51.952;6.146;2023-02-15T03:13:19;56.60;;;25.20;;
31537;SDS011;18147;51.952;6.146;2023-02-15T03:15:46;83.85;;;28.63;;
31537;SDS011;18147;51.952;6.146;2023-02-15T03:18:38;79.85;;;28.08;;
31537;SDS011;18147;51.952;6.146;2023-02-15T03:21:08;144.88;;;32.65;;
31537;SDS011;18147;51.952;6.146;2023-02-15T03:23:49;242.95;;;38.67;;
31537;SDS011;18147;51.952;6.146;2023-02-15T03:26:19;124.05;;;35.90;;
31537;SDS011;18147;51.952;6.146;2023-02-15T03:28:49;196.15;;;38.72;;
31537;SDS011;18147;51.952;6.146;2023-02-15T03:31:18;136.65;;;39.50;;
31537;SDS011;18147;51.952;6.146;2023-02-15T03:33:58;108.03;;;35.33;;
31537;SDS011;18147;51.952;6.146;2023-02-15T03:36:47;99.28;;;32.33;;
31537;SDS011;18147;51.952;6.146;2023-02-15T03:39:23;72.90;;;28.75;;
31537;SDS011;18147;51.952;6.146;2023-02-15T03:41:59;74.72;;;28.73;;
31537;SDS011;18147;51.952;6.146;2023-02-15T03:44:41;79.72;;;30.55;;
31537;SDS011;18147;51.952;6.146;2023-02-15T03:47:18;82.03;;;29.83;;
31537;SDS011;18147;51.952;6.146;2023-02-15T03:49:50;75.25;;;30.38;;
31537;SDS011;18147;51.952;6.146;2023-02-15T03:52:20;76.28;;;29.20;;
31537;SDS011;18147;51.952;6.146;2023-02-15T03:54:50;74.13;;;27.92;;
31537;SDS011;18147;51.952;6.146;2023-02-15T03:57:18;70.80;;;27.98;;
31537;SDS011;18147;51.952;6.146;2023-02-15T04:00:04;69.93;;;26.35;;
31537;SDS011;18147;51.952;6.146;2023-02-15T04:05:26;61.25;;;26.35;;
31537;SDS011;18147;51.952;6.146;2023-02-15T04:07:52;64.50;;;26.75;;
31537;SDS011;18147;51.952;6.146;2023-02-15T04:10:17;70.85;;;27.67;;
31537;SDS011;18147;51.952;6.146;2023-02-15T04:13:01;67.40;;;27.70;;
31537;SDS011;18147;51.952;6.146;2023-02-15T04:15:26;69.32;;;27.92;;
31537;SDS011;18147;51.952;6.146;2023-02-15T04:18:10;64.32;;;26.17;;
31537;SDS011;18147;51.952;6.146;2023-02-15T04:20:36;59.42;;;26.08;;
31537;SDS011;18147;51.952;6.146;2023-02-15T04:23:19;65.22;;;27.70;;
31537;SDS011;18147;51.952;6.146;2023-02-15T04:26:03;63.53;;;26.92;;
31537;SDS011;18147;51.952;6.146;2023-02-15T04:28:30;62.80;;;24.88;;
31537;SDS011;18147;51.952;6.146;2023-02-15T04:30:55;54.35;;;23.90;;
31537;SDS011;18147;51.952;6.146;2023-02-15T04:33:21;64.97;;;27.85;;
31537;SDS011;18147;51.952;6.146;2023-02-15T04:35:46;65.03;;;26.08;;
31537;SDS011;18147;51.952;6.146;2023-02-15T04:38:11;60.17;;;24.25;;
31537;SDS011;18147;51.952;6.146;2023-02-15T04:40:37;63.67;;;25.38;;
31537;SDS011;18147;51.952;6.146;2023-02-15T04:43:02;87.15;;;29.23;;
31537;SDS011;18147;51.952;6.146;2023-02-15T04:45:27;57.05;;;25.95;;
31537;SDS011;18147;51.952;6.146;2023-02-15T04:47:53;49.55;;;22.85;;
31537;SDS011;18147;51.952;6.146;2023-02-15T04:50:18;64.60;;;25.42;;
31537;SDS011;18147;51.952;6.146;2023-02-15T04:52:44;71.32;;;27.85;;
31537;SDS011;18147;51.952;6.146;2023-02-15T04:55:09;69.40;;;27.92;;
31537;SDS011;18147;51.952;6.146;2023-02-15T04:57:35;62.08;;;26.27;;
31537;SDS011;18147;51.952;6.146;2023-02-15T05:00:00;61.63;;;24.65;;
31537;SDS011;18147;51.952;6.146;2023-02-15T05:02:26;53.00;;;22.90;;
31537;SDS011;18147;51.952;6.146;2023-02-15T05:04:51;64.72;;;25.10;;
31537;SDS011;18147;51.952;6.146;2023-02-15T05:07:17;51.83;;;24.55;;
31537;SDS011;18147;51.952;6.146;2023-02-15T05:09:42;59.30;;;24.58;;
31537;SDS011;18147;51.952;6.146;2023-02-15T05:12:08;58.22;;;25.38;;
31537;SDS011;18147;51.952;6.146;2023-02-15T05:14:33;49.03;;;22.60;;
31537;SDS011;18147;51.952;6.146;2023-02-15T05:16:59;59.42;;;24.55;;
31537;SDS011;18147;51.952;6.146;2023-02-15T05:19:26;45.50;;;22.17;;
31537;SDS011;18147;51.952;6.146;2023-02-15T05:21:52;55.25;;;24.70;;
31537;SDS011;18147;51.952;6.146;2023-02-15T05:24:17;53.38;;;22.90;;
31537;SDS011;18147;51.952;6.146;2023-02-15T05:27:01;55.03;;;22.92;;
31537;SDS011;18147;51.952;6.146;2023-02-15T05:29:45;110.10;;;27.50;;
31537;SDS011;18147;51.952;6.146;2023-02-15T05:32:12;53.50;;;24.38;;
31537;SDS011;18147;51.952;6.146;2023-02-15T05:34:38;60.58;;;25.05;;
31537;SDS011;18147;51.952;6.146;2023-02-15T05:37:03;62.03;;;23.90;;
31537;SDS011;18147;51.952;6.146;2023-02-15T05:39:29;53.38;;;23.75;;
31537;SDS011;18147;51.952;6.146;2023-02-15T05:41:54;63.08;;;27.25;;
31537;SDS011;18147;51.952;6.146;2023-02-15T05:44:23;64.22;;;28.83;;
31537;SDS011;18147;51.952;6.146;2023-02-15T05:46:48;65.78;;;26.60;;
31537;SDS011;18147;51.952;6.146;2023-02-15T05:49:15;64.78;;;26.63;;
31537;SDS011;18147;51.952;6.146;2023-02-15T05:51:40;67.60;;;26.73;;
31537;SDS011;18147;51.952;6.146;2023-02-15T05:54:05;67.90;;;26.45;;
31537;SDS011;18147;51.952;6.146;2023-02-15T05:56:31;55.67;;;25.08;;
31537;SDS011;18147;51.952;6.146;2023-02-15T05:58:57;57.67;;;24.30;;
31537;SDS011;18147;51.952;6.146;2023-02-15T06:01:22;55.90;;;23.42;;
31537;SDS011;18147;51.952;6.146;2023-02-15T06:03:48;53.97;;;23.05;;
31537;SDS011;18147;51.952;6.146;2023-02-15T06:06:13;58.67;;;23.38;;
31537;SDS011;18147;51.952;6.146;2023-02-15T06:08:40;54.15;;;23.45;;
31537;SDS011;18147;51.952;6.146;2023-02-15T06:11:06;50.00;;;22.70;;
31537;SDS011;18147;51.952;6.146;2023-02-15T06:13:31;54.42;;;23.92;;
31537;SDS011;18147;51.952;6.146;2023-02-15T06:15:57;47.33;;;21.98;;
31537;SDS011;18147;51.952;6.146;2023-02-15T06:18:23;52.55;;;22.60;;
31537;SDS011;18147;51.952;6.146;2023-02-15T06:20:48;53.33;;;22.58;;
31537;SDS011;18147;51.952;6.146;2023-02-15T06:23:14;55.60;;;23.38;;
31537;SDS011;18147;51.952;6.146;2023-02-15T06:25:40;58.47;;;25.40;;
31537;SDS011;18147;51.952;6.146;2023-02-15T06:28:05;48.70;;;22.13;;
31537;SDS011;18147;51.952;6.146;2023-02-15T06:30:31;51.10;;;22.50;;
31537;SDS011;18147;51.952;6.146;2023-02-15T06:32:56;57.05;;;23.65;;
31537;SDS011;18147;51.952;6.146;2023-02-15T06:35:22;54.70;;;22.45;;
31537;SDS011;18147;51.952;6.146;2023-02-15T06:37:48;54.88;;;23.23;;
31537;SDS011;18147;51.952;6.146;2023-02-15T06:40:14;57.95;;;24.83;;
31537;SDS011;18147;51.952;6.146;2023-02-15T06:42:40;54.10;;;24.95;;
31537;SDS011;18147;51.952;6.146;2023-02-15T06:45:06;50.88;;;23.85;;
31537;SDS011;18147;51.952;6.146;2023-02-15T06:47:32;68.05;;;27.98;;
31537;SDS011;18147;51.952;6.146;2023-02-15T06:49:57;64.22;;;27.13;;
31537;SDS011;18147;51.952;6.146;2023-02-15T06:52:23;62.65;;;25.70;;
31537;SDS011;18147;51.952;6.146;2023-02-15T06:54:48;57.63;;;24.52;;
31537;SDS011;18147;51.952;6.146;2023-02-15T06:57:14;65.70;;;27.92;;
31537;SDS011;18147;51.952;6.146;2023-02-15T06:59:39;51.15;;;23.02;;
31537;SDS011;18147;51.952;6.146;2023-02-15T07:02:05;49.97;;;21.35;;
31537;SDS011;18147;51.952;6.146;2023-02-15T07:04:31;59.40;;;22.95;;
31537;SDS011;18147;51.952;6.146;2023-02-15T07:06:56;56.63;;;23.30;;
31537;SDS011;18147;51.952;6.146;2023-02-15T07:09:22;58.40;;;22.25;;
31537;SDS011;18147;51.952;6.146;2023-02-15T07:11:47;61.92;;;24.85;;
31537;SDS011;18147;51.952;6.146;2023-02-15T07:14:31;60.38;;;24.98;;
31537;SDS011;18147;51.952;6.146;2023-02-15T07:16:57;60.72;;;25.25;;
31537;SDS011;18147;51.952;6.146;2023-02-15T07:19:22;59.67;;;25.08;;
31537;SDS011;18147;51.952;6.146;2023-02-15T07:21:48;72.38;;;23.58;;
31537;SDS011;18147;51.952;6.146;2023-02-15T07:24:13;63.10;;;26.15;;
31537;SDS011;18147;51.952;6.146;2023-02-15T07:26:39;56.33;;;25.08;;
31537;SDS011;18147;51.952;6.146;2023-02-15T07:29:04;59.05;;;24.17;;
31537;SDS011;18147;51.952;6.146;2023-02-15T07:31:30;58.20;;;24.95;;
31537;SDS011;18147;51.952;6.146;2023-02-15T07:33:55;60.00;;;23.52;;
31537;SDS011;18147;51.952;6.146;2023-02-15T07:36:21;49.22;;;22.10;;
31537;SDS011;18147;51.952;6.146;2023-02-15T07:38:46;59.08;;;23.90;;
31537;SDS011;18147;51.952;6.146;2023-02-15T07:41:12;58.00;;;25.45;;
31537;SDS011;18147;51.952;6.146;2023-02-15T07:43:40;53.92;;;23.45;;
31537;SDS011;18147;51.952;6.146;2023-02-15T07:46:11;53.35;;;23.17;;
31537;SDS011;18147;51.952;6.146;2023-02-15T07:48:40;56.03;;;25.42;;
31537;SDS011;18147;51.952;6.146;2023-02-15T07:51:06;75.38;;;27.45;;
31537;SDS011;18147;51.952;6.146;2023-02-15T07:53:33;56.60;;;25.10;;
31537;SDS011;18147;51.952;6.146;2023-02-15T07:56:03;59.10;;;24.30;;
31537;SDS011;18147;51.952;6.146;2023-02-15T07:58:31;58.63;;;25.08;;
31537;SDS011;18147;51.952;6.146;2023-02-15T08:01:15;55.90;;;25.33;;
31537;SDS011;18147;51.952;6.146;2023-02-15T08:03:43;62.00;;;25.30;;
31537;SDS011;18147;51.952;6.146;2023-02-15T08:06:08;62.55;;;27.05;;
31537;SDS011;18147;51.952;6.146;2023-02-15T08:08:36;70.43;;;27.20;;
31537;SDS011;18147;51.952;6.146;2023-02-15T08:13:50;71.10;;;27.75;;
31537;SDS011;18147;51.952;6.146;2023-02-15T08:18:55;65.93;;;29.73;;
31537;SDS011;18147;51.952;6.146;2023-02-15T08:21:22;77.45;;;29.92;;
31537;SDS011;18147;51.952;6.146;2023-02-15T08:23:49;63.80;;;27.65;;
31537;SDS011;18147;51.952;6.146;2023-02-15T08:26:16;73.28;;;29.05;;
31537;SDS011;18147;51.952;6.146;2023-02-15T08:28:42;71.55;;;29.10;;
31537;SDS011;18147;51.952;6.146;2023-02-15T08:31:11;68.70;;;28.27;;
31537;SDS011;18147;51.952;6.146;2023-02-15T08:33:38;70.35;;;31.38;;
31537;SDS011;18147;51.952;6.146;2023-02-15T08:36:06;68.68;;;27.65;;
31537;SDS011;18147;51.952;6.146;2023-02-15T08:38:54;73.30;;;29.85;;
31537;SDS011;18147;51.952;6.146;2023-02-15T08:43:50;76.40;;;31.55;;
31537;SDS011;18147;51.952;6.146;2023-02-15T08:46:18;77.18;;;30.90;;
31537;SDS011;18147;51.952;6.146;2023-02-15T08:48:45;75.75;;;28.38;;
31537;SDS011;18147;51.952;6.146;2023-02-15T08:51:14;78.93;;;29.92;;
31537;SDS011;18147;51.952;6.146;2023-02-15T08:53:46;73.78;;;30.95;;
31537;SDS011;18147;51.952;6.146;2023-02-15T08:56:16;76.80;;;31.63;;
31537;SDS011;18147;51.952;6.146;2023-02-15T08:58:49;67.32;;;30.02;;
31537;SDS011;18147;51.952;6.146;2023-02-15T09:01:16;68.53;;;28.70;;
31537;SDS011;18147;51.952;6.146;2023-02-15T09:03:45;65.55;;;28.40;;
31537;SDS011;18147;51.952;6.146;2023-02-15T09:06:11;66.22;;;29.27;;
31537;SDS011;18147;51.952;6.146;2023-02-15T09:08:38;67.28;;;28.05;;
31537;SDS011;18147;51.952;6.146;2023-02-15T09:11:08;71.03;;;28.05;;
31537;SDS011;18147;51.952;6.146;2023-02-15T09:13:36;68.35;;;28.60;;
31537;SDS011;18147;51.952;6.146;2023-02-15T09:16:04;65.97;;;29.63;;
31537;SDS011;18147;51.952;6.146;2023-02-15T09:18:32;68.97;;;29.52;;
31537;SDS011;18147;51.952;6.146;2023-02-15T09:21:11;68.50;;;27.63;;
31537;SDS011;18147;51.952;6.146;2023-02-15T09:23:39;66.72;;;31.63;;
31537;SDS011;18147;51.952;6.146;2023-02-15T09:26:06;57.00;;;26.45;;
31537;SDS011;18147;51.952;6.146;2023-02-15T09:28:37;63.38;;;26.65;;
31537;SDS011;18147;51.952;6.146;2023-02-15T09:31:07;59.47;;;27.65;;
31537;SDS011;18147;51.952;6.146;2023-02-15T09:33:35;66.63;;;28.38;;
31537;SDS011;18147;51.952;6.146;2023-02-15T09:36:02;58.78;;;26.38;;
31537;SDS011;18147;51.952;6.146;2023-02-15T09:38:28;59.88;;;26.20;;
31537;SDS011;18147;51.952;6.146;2023-02-15T09:41:20;56.92;;;26.85;;
31537;SDS011;18147;51.952;6.146;2023-02-15T09:44:23;55.72;;;25.90;;
31537;SDS011;18147;51.952;6.146;2023-02-15T09:57:08;53.03;;;23.45;;
31537;SDS011;18147;51.952;6.146;2023-02-15T10:08:04;60.00;;;26.50;;
31537;SDS011;18147;51.952;6.146;2023-02-15T10:10:51;62.67;;;25.65;;
31537;SDS011;18147;51.952;6.146;2023-02-15T10:16:41;59.17;;;25.40;;
31537;SDS011;18147;51.952;6.146;2023-02-15T10:19:37;64.95;;;27.05;;
31537;SDS011;18147;51.952;6.146;2023-02-15T10:27:45;53.20;;;25.58;;
31537;SDS011;18147;51.952;6.146;2023-02-15T10:30:14;55.20;;;25.63;;
31537;SDS011;18147;51.952;6.146;2023-02-15T10:32:50;53.83;;;26.27;;
31537;SDS011;18147;51.952;6.146;2023-02-15T10:40:38;52.67;;;23.98;;
31537;SDS011;18147;51.952;6.146;2023-02-15T10:45:53;52.88;;;25.60;;
31537;SDS011;18147;51.952;6.146;2023-02-15T10:50:48;52.03;;;24.75;;
31537;SDS011;18147;51.952;6.146;2023-02-15T11:01:32;50.42;;;23.38;;
31537;SDS011;18147;51.952;6.146;2023-02-15T11:04:07;55.17;;;25.58;;
31537;SDS011;18147;51.952;6.146;2023-02-15T11:06:54;54.20;;;25.55;;
31537;SDS011;18147;51.952;6.146;2023-02-15T11:09:25;50.30;;;24.00;;
31537;SDS011;18147;51.952;6.146;2023-02-15T11:12:02;56.25;;;27.88;;
31537;SDS011;18147;51.952;6.146;2023-02-15T11:17:06;54.72;;;23.48;;
31537;SDS011;18147;51.952;6.146;2023-02-15T11:19:41;54.30;;;24.17;;
31537;SDS011;18147;51.952;6.146;2023-02-15T11:22:12;50.53;;;23.23;;
31537;SDS011;18147;51.952;6.146;2023-02-15T11:24:42;59.22;;;25.73;;
31537;SDS011;18147;51.952;6.146;2023-02-15T11:32:40;54.95;;;23.67;;
31537;SDS011;18147;51.952;6.146;2023-02-15T11:37:40;49.65;;;24.02;;
31537;SDS011;18147;51.952;6.146;2023-02-15T11:40:25;53.80;;;25.10;;
31537;SDS011;18147;51.952;6.146;2023-02-15T11:42:54;61.60;;;27.13;;
31537;SDS011;18147;51.952;6.146;2023-02-15T11:45:27;49.72;;;25.27;;
31537;SDS011;18147;51.952;6.146;2023-02-15T11:47:59;57.38;;;26.02;;
31537;SDS011;18147;51.952;6.146;2023-02-15T11:50:27;52.40;;;25.38;;
31537;SDS011;18147;51.952;6.146;2023-02-15T11:53:06;51.33;;;25.20;;
31537;SDS011;18147;51.952;6.146;2023-02-15T11:55:37;56.33;;;24.60;;
31537;SDS011;18147;51.952;6.146;2023-02-15T11:58:04;53.85;;;24.95;;
31537;SDS011;18147;51.952;6.146;2023-02-15T12:00:50;47.88;;;22.77;;
31537;SDS011;18147;51.952;6.146;2023-02-15T12:03:22;54.40;;;24.02;;
31537;SDS011;18147;51.952;6.146;2023-02-15T12:05:54;50.50;;;24.98;;
31537;SDS011;18147;51.952;6.146;2023-02-15T12:08:25;53.42;;;22.40;;
31537;SDS011;18147;51.952;6.146;2023-02-15T12:11:12;49.60;;;23.02;;
31537;SDS011;18147;51.952;6.146;2023-02-15T12:13:58;53.00;;;25.67;;
31537;SDS011;18147;51.952;6.146;2023-02-15T12:16:31;46.03;;;22.92;;
31537;SDS011;18147;51.952;6.146;2023-02-15T12:19:25;52.30;;;25.25;;
31537;SDS011;18147;51.952;6.146;2023-02-15T12:21:55;50.28;;;23.85;;
31537;SDS011;18147;51.952;6.146;2023-02-15T12:24:23;52.25;;;24.75;;
31537;SDS011;18147;51.952;6.146;2023-02-15T12:26:56;49.97;;;24.50;;
31537;SDS011;18147;51.952;6.146;2023-02-15T12:29:24;59.30;;;26.77;;
31537;SDS011;18147;51.952;6.146;2023-02-15T12:31:54;52.95;;;25.02;;
31537;SDS011;18147;51.952;6.146;2023-02-15T12:36:55;50.58;;;24.40;;
31537;SDS011;18147;51.952;6.146;2023-02-15T12:44:23;54.38;;;24.10;;
31537;SDS011;18147;51.952;6.146;2023-02-15T12:46:58;46.95;;;22.65;;
31537;SDS011;18147;51.952;6.146;2023-02-15T12:49:24;49.38;;;24.30;;
31537;SDS011;18147;51.952;6.146;2023-02-15T12:54:24;49.42;;;23.60;;
31537;SDS011;18147;51.952;6.146;2023-02-15T12:57:30;51.22;;;24.02;;
31537;SDS011;18147;51.952;6.146;2023-02-15T13:00:02;52.22;;;24.58;;
31537;SDS011;18147;51.952;6.146;2023-02-15T13:02:44;49.47;;;23.98;;
31537;SDS011;18147;51.952;6.146;2023-02-15T13:07:53;51.03;;;24.13;;
31537;SDS011;18147;51.952;6.146;2023-02-15T13:13:10;47.13;;;23.70;;
31537;SDS011;18147;51.952;6.146;2023-02-15T13:15:44;50.03;;;23.60;;
31537;SDS011;18147;51.952;6.146;2023-02-15T13:20:58;48.28;;;23.38;;
31537;SDS011;18147;51.952;6.146;2023-02-15T13:23:30;51.53;;;24.65;;
31537;SDS011;18147;51.952;6.146;2023-02-15T13:25:59;55.20;;;25.05;;
31537;SDS011;18147;51.952;6.146;2023-02-15T13:28:33;52.55;;;24.90;;
31537;SDS011;18147;51.952;6.146;2023-02-15T13:31:23;59.08;;;26.42;;
31537;SDS011;18147;51.952;6.146;2023-02-15T13:34:36;52.88;;;25.38;;
31537;SDS011;18147;51.952;6.146;2023-02-15T13:42:17;62.83;;;29.27;;
31537;SDS011;18147;51.952;6.146;2023-02-15T13:45:08;56.53;;;28.25;;
31537;SDS011;18147;51.952;6.146;2023-02-15T13:59:20;54.47;;;26.85;;
31537;SDS011;18147;51.952;6.146;2023-02-15T14:09:51;55.47;;;26.25;;
31537;SDS011;18147;51.952;6.146;2023-02-15T14:12:36;53.30;;;25.63;;
31537;SDS011;18147;51.952;6.146;2023-02-15T14:15:29;53.42;;;25.80;;
31537;SDS011;18147;51.952;6.146;2023-02-15T14:18:23;58.95;;;28.25;;
31537;SDS011;18147;51.952;6.146;2023-02-15T14:20:57;59.00;;;26.60;;
31537;SDS011;18147;51.952;6.146;2023-02-15T14:29:03;50.90;;;25.67;;
31537;SDS011;18147;51.952;6.146;2023-02-15T14:31:41;58.83;;;26.65;;
31537;SDS011;18147;51.952;6.146;2023-02-15T14:34:24;55.15;;;26.23;;
31537;SDS011;18147;51.952;6.146;2023-02-15T14:36:55;61.53;;;27.25;;
31537;SDS011;18147;51.952;6.146;2023-02-15T14:42:23;53.22;;;26.40;;
31537;SDS011;18147;51.952;6.146;2023-02-15T14:47:39;60.17;;;28.38;;
31537;SDS011;18147;51.952;6.146;2023-02-15T14:50:35;57.13;;;27.83;;
31537;SDS011;18147;51.952;6.146;2023-02-15T14:53:14;53.40;;;26.40;;
31537;SDS011;18147;51.952;6.146;2023-02-15T14:58:36;49.47;;;25.65;;
31537;SDS011;18147;51.952;6.146;2023-02-15T15:01:08;61.95;;;27.27;;
31537;SDS011;18147;51.952;6.146;2023-02-15T15:03:35;57.35;;;27.50;;
31537;SDS011;18147;51.952;6.146;2023-02-15T15:08:48;58.75;;;25.85;;
31537;SDS011;18147;51.952;6.146;2023-02-15T15:13:58;55.00;;;26.73;;
31537;SDS011;18147;51.952;6.146;2023-02-15T15:16:27;59.13;;;27.10;;
31537;SDS011;18147;51.952;6.146;2023-02-15T15:18:56;59.40;;;28.33;;
31537;SDS011;18147;51.952;6.146;2023-02-15T15:32:47;59.78;;;27.65;;
31537;SDS011;18147;51.952;6.146;2023-02-15T15:41:19;60.95;;;28.65;;
31537;SDS011;18147;51.952;6.146;2023-02-15T15:49:38;59.15;;;28.05;;
31537;SDS011;18147;51.952;6.146;2023-02-15T15:52:10;56.42;;;28.17;;
31537;SDS011;18147;51.952;6.146;2023-02-15T15:54:39;62.53;;;27.95;;
31537;SDS011;18147;51.952;6.146;2023-02-15T15:57:06;59.47;;;28.38;;
31537;SDS011;18147;51.952;6.146;2023-02-15T15:59:44;61.53;;;28.85;;
31537;SDS011;18147;51.952;6.146;2023-02-15T16:02:13;59.78;;;27.48;;
31537;SDS011;18147;51.952;6.146;2023-02-15T16:04:43;61.95;;;29.20;;
31537;SDS011;18147;51.952;6.146;2023-02-15T16:07:13;58.33;;;28.98;;
31537;SDS011;18147;51.952;6.146;2023-02-15T16:09:41;65.22;;;29.45;;
31537;SDS011;18147;51.952;6.146;2023-02-15T16:12:22;66.05;;;30.98;;
31537;SDS011;18147;51.952;6.146;2023-02-15T16:14:48;61.05;;;28.17;;
31537;SDS011;18147;51.952;6.146;2023-02-15T16:17:20;60.63;;;27.52;;
31537;SDS011;18147;51.952;6.146;2023-02-15T16:19:48;60.20;;;28.88;;
31537;SDS011;18147;51.952;6.146;2023-02-15T16:22:19;64.85;;;28.40;;
31537;SDS011;18147;51.952;6.146;2023-02-15T16:25:07;62.83;;;28.20;;
31537;SDS011;18147;51.952;6.146;2023-02-15T16:27:43;61.20;;;28.17;;
31537;SDS011;18147;51.952;6.146;2023-02-15T16:36:00;61.78;;;28.50;;
31537;SDS011;18147;51.952;6.146;2023-02-15T16:41:09;64.03;;;29.40;;
31537;SDS011;18147;51.952;6.146;2023-02-15T16:43:37;65.97;;;29.00;;
31537;SDS011;18147;51.952;6.146;2023-02-15T16:46:06;69.00;;;30.13;;
31537;SDS011;18147;51.952;6.146;2023-02-15T16:48:37;64.93;;;29.48;;
31537;SDS011;18147;51.952;6.146;2023-02-15T16:51:06;68.43;;;28.92;;
31537;SDS011;18147;51.952;6.146;2023-02-15T16:53:33;62.55;;;28.17;;
31537;SDS011;18147;51.952;6.146;2023-02-15T16:56:00;66.93;;;30.88;;
31537;SDS011;18147;51.952;6.146;2023-02-15T16:58:39;65.28;;;30.60;;
31537;SDS011;18147;51.952;6.146;2023-02-15T17:01:08;72.68;;;30.83;;
31537;SDS011;18147;51.952;6.146;2023-02-15T17:03:36;62.33;;;29.75;;
31537;SDS011;18147;51.952;6.146;2023-02-15T17:06:02;66.38;;;30.23;;
31537;SDS011;18147;51.952;6.146;2023-02-15T17:13:34;64.13;;;30.00;;
31537;SDS011;18147;51.952;6.146;2023-02-15T17:18:29;70.28;;;30.45;;
31537;SDS011;18147;51.952;6.146;2023-02-15T17:20:59;73.10;;;30.67;;
31537;SDS011;18147;51.952;6.146;2023-02-15T17:23:31;66.95;;;31.33;;
31537;SDS011;18147;51.952;6.146;2023-02-15T17:26:00;70.43;;;30.67;;
31537;SDS011;18147;51.952;6.146;2023-02-15T17:28:36;71.90;;;31.02;;
31537;SDS011;18147;51.952;6.146;2023-02-15T17:31:06;67.45;;;30.77;;
31537;SDS011;18147;51.952;6.146;2023-02-15T17:36:11;76.45;;;30.98;;
31537;SDS011;18147;51.952;6.146;2023-02-15T17:38:58;68.45;;;31.05;;
31537;SDS011;18147;51.952;6.146;2023-02-15T17:41:47;62.15;;;29.88;;
31537;SDS011;18147;51.952;6.146;2023-02-15T17:44:14;65.60;;;28.13;;
31537;SDS011;18147;51.952;6.146;2023-02-15T17:46:40;63.00;;;28.02;;
31537;SDS011;18147;51.952;6.146;2023-02-15T17:49:06;66.10;;;27.77;;
31537;SDS011;18147;51.952;6.146;2023-02-15T17:51:32;57.90;;;29.00;;
31537;SDS011;18147;51.952;6.146;2023-02-15T17:54:00;64.63;;;29.75;;
31537;SDS011;18147;51.952;6.146;2023-02-15T17:56:45;63.92;;;27.80;;
31537;SDS011;18147;51.952;6.146;2023-02-15T17:59:11;66.90;;;28.50;;
31537;SDS011;18147;51.952;6.146;2023-02-15T18:01:41;66.82;;;29.13;;